Terminal Aerodrome Forecast
Issued by NWS Memphis, TN

Home | Current Version | Previous Version | Text Only | Print | Product List | Glossary On
Versions: 1 2 3 4 5 6 7 8 9 10 11 12 13 14 15 16 17 18 19 20 21 22 23 24
321
FTUS44 KMEG 141125
TAFMEM
TAF
KMEM 141125Z 1412/1512 14010KT P6SM SCT035 OVC050
     FM141700 17010KT P6SM VCSH SCT025 OVC035
      TEMPO 1422/1502 6SM -SHRA BKN025
     FM150200 18006KT 4SM -RA BR SCT006 OVC015
     FM150700 VRB03KT 2SM RA BR SCT004 OVC006=

USA.gov is the U.S. government's official web portal to all federal, state and local government web resources and services.